createdAt,value
2017-08-22T00:00:54.069Z,7.2
2017-08-22T00:02:12.758Z,7.2
2017-08-22T00:03:31.416Z,7.2
2017-08-22T00:04:50.085Z,7.2
2017-08-22T00:06:08.760Z,7.1
2017-08-22T00:07:27.460Z,7.1
2017-08-22T00:08:46.143Z,7.2
2017-08-22T00:10:04.784Z,7.2
2017-08-22T00:11:23.440Z,7.2
2017-08-22T00:12:42.115Z,7.1
2017-08-22T00:14:00.789Z,7.1
2017-08-22T00:15:19.428Z,7.1
2017-08-22T00:16:38.085Z,7.1
2017-08-22T00:17:56.736Z,7.1
2017-08-22T00:19:15.400Z,7.1
2017-08-22T00:20:34.048Z,7.1
2017-08-22T00:21:52.702Z,7.1
2017-08-22T00:23:11.357Z,7
2017-08-22T00:24:30.017Z,7
2017-08-22T00:25:48.682Z,7
2017-08-22T00:27:07.346Z,7
2017-08-22T00:28:25.988Z,7
2017-08-22T00:29:44.630Z,7
2017-08-22T00:31:03.277Z,7
2017-08-22T00:32:21.974Z,7
2017-08-22T00:33:40.614Z,7
2017-08-22T00:34:59.287Z,7
2017-08-22T00:36:17.949Z,7
2017-08-22T00:37:36.608Z,7
2017-08-22T00:38:55.306Z,7
2017-08-22T00:40:13.958Z,7
2017-08-22T00:41:32.620Z,6.9
2017-08-22T00:42:51.308Z,6.9
2017-08-22T00:44:09.958Z,6.9
2017-08-22T00:45:28.603Z,6.9
2017-08-22T00:46:47.284Z,6.9
2017-08-22T00:48:05.985Z,6.8
2017-08-22T00:49:24.626Z,6.9
2017-08-22T00:50:43.263Z,6.8
2017-08-22T00:52:01.975Z,6.8
2017-08-22T00:53:20.651Z,6.8
2017-08-22T00:54:39.326Z,6.8
2017-08-22T00:55:57.962Z,6.8
2017-08-22T00:57:16.599Z,6.9
2017-08-22T00:58:35.279Z,6.9
2017-08-22T00:59:53.925Z,6.8
2017-08-22T01:01:12.563Z,6.8
2017-08-22T01:02:31.201Z,6.8
2017-08-22T01:03:49.863Z,6.8
2017-08-22T01:05:08.503Z,6.8
2017-08-22T01:06:27.159Z,6.8
2017-08-22T01:07:45.837Z,6.8
2017-08-22T01:09:04.514Z,6.8
2017-08-22T01:10:23.164Z,6.7
2017-08-22T01:11:41.859Z,6.8
2017-08-22T01:13:00.544Z,6.8
2017-08-22T01:14:19.208Z,6.9
2017-08-22T01:15:37.851Z,7
2017-08-22T01:16:56.546Z,7.1
2017-08-22T01:18:15.215Z,7.2
2017-08-22T01:19:33.871Z,7.3
2017-08-22T01:20:52.508Z,7.3
2017-08-22T01:22:11.154Z,7.3
2017-08-22T01:23:29.811Z,7.3
2017-08-22T01:24:48.498Z,7.3
2017-08-22T01:26:07.157Z,7.2
2017-08-22T01:27:25.794Z,7.2
2017-08-22T01:28:44.484Z,7.2
2017-08-22T01:30:03.184Z,7.2
2017-08-22T01:31:21.903Z,7.2
2017-08-22T01:32:40.575Z,7.2
2017-08-22T01:33:59.220Z,7.3
2017-08-22T01:35:17.926Z,7.2
2017-08-22T01:36:36.564Z,7.2
2017-08-22T01:37:55.306Z,7.2
2017-08-22T01:39:13.966Z,7.3
2017-08-22T01:40:32.624Z,7.4
2017-08-22T01:41:51.264Z,7.4
2017-08-22T01:43:09.925Z,7.4
2017-08-22T01:44:28.567Z,7.4
2017-08-22T01:45:47.230Z,7.4
2017-08-22T01:47:05.871Z,7.4
2017-08-22T01:48:24.561Z,7.4
2017-08-22T01:49:43.225Z,7.5
2017-08-22T01:51:01.919Z,7.5
2017-08-22T01:52:20.549Z,7.5
2017-08-22T01:53:39.189Z,7.6
2017-08-22T01:54:57.880Z,7.7
2017-08-22T01:56:16.567Z,7.7
2017-08-22T01:57:35.259Z,7.8
2017-08-22T01:58:53.895Z,7.9
2017-08-22T02:00:12.534Z,8
2017-08-22T02:01:31.182Z,8
2017-08-22T02:02:49.828Z,8.1
2017-08-22T02:04:08.475Z,8.1
2017-08-22T02:05:27.166Z,8.2
2017-08-22T02:06:45.819Z,8.3
2017-08-22T02:08:04.458Z,8.3
2017-08-22T02:09:23.099Z,8.3
2017-08-22T02:10:41.759Z,8.3
2017-08-22T02:12:00.413Z,8.3
2017-08-22T02:13:19.065Z,8.2
2017-08-22T02:14:37.697Z,8.1
2017-08-22T02:15:56.334Z,8
2017-08-22T02:17:15.039Z,7.8
2017-08-22T02:18:33.710Z,7.7
2017-08-22T02:19:52.360Z,7.6
2017-08-22T02:21:11.001Z,7.6
2017-08-22T02:22:29.659Z,7.6
2017-08-22T02:23:48.291Z,7.5
2017-08-22T02:25:06.933Z,7.5
2017-08-22T02:26:25.575Z,7.4
2017-08-22T02:27:44.243Z,7.3
2017-08-22T02:29:02.898Z,7.2
2017-08-22T02:30:21.554Z,7.2
2017-08-22T02:31:40.206Z,7.2
2017-08-22T02:32:58.858Z,7.2
2017-08-22T02:34:17.549Z,7.2
2017-08-22T02:35:36.191Z,7.2
2017-08-22T02:36:54.832Z,7.1
2017-08-22T02:38:13.494Z,7.1
2017-08-22T02:39:32.153Z,7
2017-08-22T02:40:50.793Z,7
2017-08-22T02:42:09.430Z,7
2017-08-22T02:43:28.081Z,7
2017-08-22T02:44:46.758Z,7
2017-08-22T02:46:05.405Z,7
2017-08-22T02:47:24.052Z,6.9
2017-08-22T02:48:42.706Z,6.9
2017-08-22T02:50:01.411Z,6.9
2017-08-22T02:51:20.087Z,6.9
2017-08-22T02:52:38.788Z,6.8
2017-08-22T02:53:57.461Z,6.8
2017-08-22T02:55:16.103Z,6.9
2017-08-22T02:56:34.765Z,6.9
2017-08-22T02:57:53.405Z,6.9
2017-08-22T02:59:12.096Z,6.9
2017-08-22T03:00:30.755Z,6.9
2017-08-22T03:01:49.439Z,7
2017-08-22T03:03:08.089Z,7
2017-08-22T03:04:26.804Z,7
2017-08-22T03:05:45.495Z,7.1
2017-08-22T03:07:04.139Z,7.1
2017-08-22T03:08:22.779Z,7.1
2017-08-22T03:09:41.513Z,7.2
2017-08-22T03:11:00.207Z,7.2
2017-08-22T03:12:18.856Z,7.2
2017-08-22T03:13:37.489Z,7.2
2017-08-22T03:14:56.143Z,7.1
2017-08-22T03:16:14.851Z,7.1
2017-08-22T03:17:33.492Z,7
2017-08-22T03:18:52.186Z,7
2017-08-22T03:20:10.829Z,7
2017-08-22T03:21:29.514Z,6.9
2017-08-22T03:22:48.148Z,6.9
2017-08-22T03:24:06.793Z,6.9
2017-08-22T03:25:25.439Z,6.8
2017-08-22T03:26:44.069Z,6.8
2017-08-22T03:28:02.716Z,6.8
2017-08-22T03:29:21.437Z,6.7
2017-08-22T03:30:40.133Z,6.7
2017-08-22T03:31:58.777Z,6.7
2017-08-22T03:33:17.411Z,6.7
2017-08-22T03:34:36.046Z,6.6
2017-08-22T03:35:54.757Z,6.6
2017-08-22T03:37:13.445Z,6.7
2017-08-22T03:38:32.074Z,6.7
2017-08-22T03:39:50.712Z,6.7
2017-08-22T03:41:09.369Z,6.6
2017-08-22T03:42:28.017Z,6.6
2017-08-22T03:43:46.696Z,6.6
2017-08-22T03:45:05.341Z,6.5
2017-08-22T03:46:24.006Z,6.5
2017-08-22T03:47:42.661Z,6.5
2017-08-22T03:49:01.328Z,6.5
2017-08-22T03:50:19.972Z,6.5
2017-08-22T03:51:38.663Z,6.5
2017-08-22T03:52:57.359Z,6.5
2017-08-22T03:54:16.005Z,6.5
2017-08-22T03:55:34.715Z,6.6
2017-08-22T03:56:53.370Z,6.7
2017-08-22T03:58:12.046Z,6.9
2017-08-22T03:59:30.687Z,7.1
2017-08-22T04:00:49.327Z,7.2
2017-08-22T04:02:07.989Z,7.4
2017-08-22T04:03:26.638Z,7.4
2017-08-22T04:04:45.319Z,7.5
2017-08-22T04:06:03.968Z,7.6
2017-08-22T04:07:22.628Z,7.6
2017-08-22T04:08:41.295Z,7.6
2017-08-22T04:09:59.936Z,7.7
2017-08-22T04:11:18.583Z,7.7
2017-08-22T04:12:37.241Z,7.8
2017-08-22T04:13:55.882Z,7.8
2017-08-22T04:15:14.579Z,7.8
2017-08-22T04:16:33.249Z,7.9
2017-08-22T04:17:51.932Z,7.9
2017-08-22T04:19:10.581Z,7.9
2017-08-22T04:20:29.223Z,7.9
2017-08-22T04:21:47.865Z,7.9
2017-08-22T04:23:06.534Z,7.9
2017-08-22T04:24:25.177Z,7.9
2017-08-22T04:25:43.856Z,7.9
2017-08-22T04:27:02.515Z,7.9
2017-08-22T04:28:21.192Z,8
2017-08-22T04:29:39.879Z,8
2017-08-22T04:30:58.549Z,8.1
2017-08-22T04:32:17.193Z,8.1
2017-08-22T04:33:35.882Z,8.2
2017-08-22T04:34:54.568Z,8.3
2017-08-22T04:36:13.227Z,8.3
2017-08-22T04:37:31.870Z,8.3
2017-08-22T04:38:50.527Z,8.3
2017-08-22T04:40:09.204Z,8.2
2017-08-22T04:41:27.853Z,8.1
2017-08-22T04:42:46.495Z,8
2017-08-22T04:44:05.154Z,7.9
2017-08-22T04:45:23.851Z,7.9
2017-08-22T04:46:42.539Z,7.9
2017-08-22T04:48:01.201Z,7.9
2017-08-22T04:49:19.852Z,7.9
2017-08-22T04:50:38.510Z,8
2017-08-22T04:51:57.138Z,8
2017-08-22T04:53:15.781Z,8.1
2017-08-22T04:54:34.486Z,8.1
2017-08-22T04:55:53.120Z,8.1
2017-08-22T04:57:11.807Z,8.2
2017-08-22T04:58:30.465Z,8.3
2017-08-22T04:59:49.176Z,8.3
2017-08-22T05:01:07.867Z,8.3
2017-08-22T05:02:26.518Z,8.2
2017-08-22T05:03:45.160Z,8.2
2017-08-22T05:05:03.859Z,8.2
2017-08-22T05:06:22.548Z,8.2
2017-08-22T05:07:41.193Z,8.2
2017-08-22T05:08:59.834Z,8.2
2017-08-22T05:10:18.483Z,8.2
2017-08-22T05:11:37.121Z,8.3
2017-08-22T05:12:55.770Z,8.3
2017-08-22T05:14:14.481Z,8.4
2017-08-22T05:15:33.143Z,8.5
2017-08-22T05:16:51.782Z,8.6
2017-08-22T05:18:10.431Z,8.8
2017-08-22T05:19:29.080Z,9
2017-08-22T05:20:47.744Z,9.3
2017-08-22T05:22:06.390Z,9.5
2017-08-22T05:23:25.021Z,9.6
2017-08-22T05:24:43.672Z,9.8
2017-08-22T05:26:02.329Z,9.9
2017-08-22T05:27:21.012Z,10
2017-08-22T05:28:39.720Z,10.1
2017-08-22T05:29:58.373Z,10.2
2017-08-22T05:31:17.041Z,10.3
2017-08-22T05:32:35.731Z,10.4
2017-08-22T05:33:54.385Z,10.5
2017-08-22T05:35:13.081Z,10.6
2017-08-22T05:36:31.752Z,10.6
2017-08-22T05:37:50.422Z,10.7
2017-08-22T05:39:09.076Z,10.7
2017-08-22T05:40:27.744Z,10.8
2017-08-22T05:41:46.456Z,10.9
2017-08-22T05:43:05.107Z,11
2017-08-22T05:44:23.764Z,11.1
2017-08-22T05:45:42.443Z,11.2
2017-08-22T05:47:01.508Z,11.3
2017-08-22T05:48:20.169Z,11.3
2017-08-22T05:49:38.867Z,11.3
2017-08-22T05:50:57.523Z,11.4
2017-08-22T05:52:16.221Z,11.4
2017-08-22T05:53:34.895Z,11.5
2017-08-22T05:54:53.564Z,11.6
2017-08-22T05:56:12.275Z,11.7
2017-08-22T05:57:30.996Z,11.8
2017-08-22T05:58:49.705Z,11.9
2017-08-22T06:00:08.358Z,11.9
2017-08-22T06:01:27.018Z,11.9
2017-08-22T06:02:45.736Z,12
2017-08-22T06:04:04.396Z,12
2017-08-22T06:05:23.113Z,12.1
2017-08-22T06:06:41.777Z,12.2
2017-08-22T06:08:00.441Z,12.2
2017-08-22T06:09:19.189Z,12.2
2017-08-22T06:10:37.847Z,12.2
2017-08-22T06:11:56.502Z,12.3
2017-08-22T06:13:15.178Z,12.3
2017-08-22T06:14:33.834Z,12.4
2017-08-22T06:15:52.493Z,12.4
2017-08-22T06:17:11.156Z,12.4
2017-08-22T06:18:29.837Z,12.3
2017-08-22T06:19:48.519Z,12.2
2017-08-22T06:21:07.230Z,12.1
2017-08-22T06:22:25.895Z,12.1
2017-08-22T06:23:44.500Z,12
2017-08-22T06:25:03.220Z,12
2017-08-22T06:26:21.891Z,12
2017-08-22T06:27:40.641Z,12.1
2017-08-22T06:28:59.313Z,12.1
2017-08-22T06:30:18.012Z,12.1
2017-08-22T06:31:36.675Z,12.2
2017-08-22T06:32:55.365Z,12.3
2017-08-22T06:34:14.089Z,12.3
2017-08-22T06:35:32.759Z,12.3
2017-08-22T06:36:51.430Z,12.4
2017-08-22T06:38:10.089Z,12.4
2017-08-22T06:39:28.775Z,12.4
2017-08-22T06:40:47.434Z,12.4
2017-08-22T06:42:06.084Z,12.4
2017-08-22T06:43:24.744Z,12.4
2017-08-22T06:44:43.419Z,12.4
2017-08-22T06:46:02.079Z,12.4
2017-08-22T06:47:20.758Z,12.4
2017-08-22T06:48:39.419Z,12.5
2017-08-22T06:49:58.138Z,12.6
2017-08-22T06:51:16.796Z,12.6
2017-08-22T06:52:35.478Z,12.7
2017-08-22T06:53:54.144Z,12.8
2017-08-22T06:55:12.813Z,12.9
2017-08-22T06:56:31.511Z,12.9
2017-08-22T06:57:50.165Z,12.9
2017-08-22T06:59:08.873Z,12.9
2017-08-22T07:00:27.596Z,12.9
2017-08-22T07:01:46.252Z,12.9
2017-08-22T07:03:04.911Z,12.9
2017-08-22T07:04:23.572Z,13
2017-08-22T07:05:42.251Z,13
2017-08-22T07:07:00.923Z,13.2
2017-08-22T07:08:19.581Z,13.3
2017-08-22T07:09:38.230Z,13.3
2017-08-22T07:10:56.890Z,13.5
2017-08-22T07:12:15.589Z,13.6
2017-08-22T07:13:34.257Z,13.7
2017-08-22T07:14:52.970Z,13.8
2017-08-22T07:16:11.633Z,13.9
2017-08-22T07:17:30.367Z,14
2017-08-22T07:18:49.055Z,14
2017-08-22T07:20:07.765Z,14.1
2017-08-22T07:21:26.424Z,14.1
2017-08-22T07:22:45.078Z,14.2
2017-08-22T07:24:03.772Z,14.3
2017-08-22T07:25:22.432Z,14.4
2017-08-22T07:26:41.089Z,14.5
2017-08-22T07:27:59.766Z,14.6
2017-08-22T07:29:18.457Z,14.7
2017-08-22T07:30:37.156Z,14.8
2017-08-22T07:31:55.815Z,14.8
2017-08-22T07:33:14.469Z,14.9
2017-08-22T07:34:33.133Z,15.1
2017-08-22T07:35:51.835Z,15.3
2017-08-22T07:37:10.526Z,15.7
2017-08-22T07:38:29.174Z,16.1
2017-08-22T07:39:47.864Z,16.5
2017-08-22T07:41:06.547Z,16.7
2017-08-22T07:42:25.215Z,17
2017-08-22T07:43:43.872Z,17.3
2017-08-22T07:45:02.528Z,17.6
2017-08-22T07:46:21.206Z,17.8
2017-08-22T07:47:39.920Z,18.1
2017-08-22T07:48:58.609Z,18.3
2017-08-22T07:50:17.269Z,18.6
2017-08-22T07:51:35.921Z,18.9
2017-08-22T07:52:54.573Z,19.2
2017-08-22T07:54:13.231Z,19.5
2017-08-22T07:55:31.884Z,19.4
2017-08-22T07:56:50.575Z,19.5
2017-08-22T07:58:09.249Z,19.5
2017-08-22T07:59:27.909Z,19.4
2017-08-22T08:00:46.608Z,19.5
2017-08-22T08:02:05.307Z,19.4
2017-08-22T08:03:23.964Z,19.5
2017-08-22T08:04:42.667Z,19.5
2017-08-22T08:06:01.326Z,19.5
2017-08-22T08:07:20.048Z,19.5
2017-08-22T08:08:38.729Z,19.5
2017-08-22T08:09:57.424Z,19.6
2017-08-22T08:11:16.090Z,19.6
2017-08-22T08:12:34.751Z,19.6
2017-08-22T08:13:53.407Z,19.7
2017-08-22T08:15:12.059Z,19.8
2017-08-22T08:16:30.707Z,19.7
2017-08-22T08:17:49.420Z,19.5
2017-08-22T08:19:08.108Z,19.4
2017-08-22T08:20:26.763Z,19.4
2017-08-22T08:21:45.427Z,19.3
2017-08-22T08:23:04.085Z,19.3
2017-08-22T08:24:22.744Z,19.4
2017-08-22T08:25:41.403Z,19.4
2017-08-22T08:27:00.108Z,19.4
2017-08-22T08:28:18.779Z,19.5
2017-08-22T08:29:37.445Z,19.4
2017-08-22T08:30:56.094Z,19.5
2017-08-22T08:32:14.808Z,19.5
2017-08-22T08:33:33.488Z,19.6
2017-08-22T08:34:52.136Z,19.7
2017-08-22T08:36:10.837Z,19.8
2017-08-22T08:37:29.489Z,19.8
2017-08-22T08:38:48.153Z,19.9
2017-08-22T08:40:06.838Z,20
2017-08-22T08:41:25.510Z,20.1
2017-08-22T08:42:44.165Z,20.1
2017-08-22T08:44:02.860Z,20.1
2017-08-22T08:45:21.516Z,20.1
2017-08-22T08:46:40.230Z,20.1
2017-08-22T08:47:58.884Z,20.1
2017-08-22T08:49:17.546Z,20.1
2017-08-22T08:50:36.246Z,20.4
2017-08-22T08:51:54.914Z,20.9
2017-08-22T08:53:13.574Z,21.4
2017-08-22T08:54:32.284Z,21.7
2017-08-22T08:55:50.943Z,21.7
2017-08-22T08:57:09.647Z,21.5
2017-08-22T08:58:28.311Z,21.1
2017-08-22T08:59:46.992Z,21.1
2017-08-22T09:01:05.646Z,21.2
2017-08-22T09:02:24.339Z,21.2
2017-08-22T09:03:43.016Z,21.2
2017-08-22T09:05:01.680Z,21.4
2017-08-22T09:06:20.340Z,21.5
2017-08-22T09:07:39.013Z,21.7
2017-08-22T09:08:57.727Z,22
2017-08-22T09:10:16.387Z,22.2
2017-08-22T09:11:35.078Z,22.1
2017-08-22T09:12:53.736Z,22.1
2017-08-22T09:14:12.388Z,22.1
2017-08-22T09:15:31.095Z,22.2
2017-08-22T09:16:49.826Z,22.4
2017-08-22T09:18:08.520Z,22.5
2017-08-22T09:19:27.223Z,22.5
2017-08-22T09:20:45.872Z,22.6
2017-08-22T09:22:04.537Z,22.7
2017-08-22T09:23:23.194Z,22.8
2017-08-22T09:24:41.870Z,22.9
2017-08-22T09:26:00.532Z,22.8
2017-08-22T09:27:19.220Z,22.6
2017-08-22T09:28:37.882Z,22.7
2017-08-22T09:29:56.536Z,22.8
2017-08-22T09:31:15.242Z,22.8
2017-08-22T09:32:33.905Z,22.5
2017-08-22T09:33:52.558Z,22.3
2017-08-22T09:35:11.228Z,21.9
2017-08-22T09:36:29.915Z,21.5
2017-08-22T09:37:48.598Z,21.3
2017-08-22T09:39:07.309Z,21.3
2017-08-22T09:40:25.961Z,21.3
2017-08-22T09:41:44.610Z,21.1
2017-08-22T09:43:03.313Z,21
2017-08-22T09:44:21.996Z,21
2017-08-22T09:45:40.710Z,21
2017-08-22T09:46:59.405Z,21.1
2017-08-22T09:48:18.102Z,21.3
2017-08-22T09:49:36.758Z,21.5
2017-08-22T09:50:55.436Z,21.6
2017-08-22T09:52:14.135Z,21.5
2017-08-22T09:53:32.808Z,21.4
2017-08-22T09:54:51.467Z,21.2
2017-08-22T09:56:10.173Z,21.4
2017-08-22T09:57:28.839Z,21.6
2017-08-22T09:58:47.508Z,21.6
2017-08-22T10:00:06.160Z,21.8
2017-08-22T10:01:24.837Z,22.1
2017-08-22T10:02:43.484Z,22.1
2017-08-22T10:04:02.170Z,22
2017-08-22T10:05:20.836Z,21.8
2017-08-22T10:06:39.558Z,21.7
2017-08-22T10:07:58.235Z,21.6
2017-08-22T10:09:16.906Z,21.3
2017-08-22T10:10:35.558Z,21.2
2017-08-22T10:11:54.215Z,21.2
2017-08-22T10:13:12.905Z,21.2
2017-08-22T10:14:31.578Z,21.4
2017-08-22T10:15:50.288Z,21.5
2017-08-22T10:17:08.987Z,21.6
2017-08-22T10:18:27.647Z,21.7
2017-08-22T10:19:46.313Z,21.8
2017-08-22T10:21:04.999Z,21.8
2017-08-22T10:22:23.677Z,21.9
2017-08-22T10:23:42.329Z,21.9
2017-08-22T10:25:01.004Z,21.8
2017-08-22T10:26:19.728Z,21.6
2017-08-22T10:27:38.380Z,21.3
2017-08-22T10:28:57.042Z,21.1
2017-08-22T10:30:15.706Z,20.8
2017-08-22T10:31:34.388Z,20.8
2017-08-22T10:32:53.118Z,20.9
2017-08-22T10:34:11.782Z,21.2
2017-08-22T10:35:30.450Z,21.7
2017-08-22T10:36:49.105Z,22
2017-08-22T10:38:07.794Z,22.2
2017-08-22T10:39:26.458Z,22
2017-08-22T10:40:45.197Z,22.2
2017-08-22T10:42:03.866Z,22.3
2017-08-22T10:43:22.531Z,22.2
2017-08-22T10:44:41.235Z,22.2
2017-08-22T10:45:59.962Z,22.2
2017-08-22T10:47:18.665Z,21.7
2017-08-22T10:48:37.320Z,21.2
2017-08-22T10:49:55.977Z,21
2017-08-22T10:51:14.671Z,21
2017-08-22T10:52:33.365Z,21
2017-08-22T10:53:52.025Z,21.2
2017-08-22T10:55:10.689Z,21.6
2017-08-22T10:56:29.419Z,21.8
2017-08-22T10:57:48.089Z,22
2017-08-22T10:59:06.798Z,22.1
2017-08-22T11:00:25.458Z,22
2017-08-22T11:01:44.115Z,21.8
2017-08-22T11:03:02.828Z,21.8
2017-08-22T11:04:21.495Z,21.8
2017-08-22T11:05:40.156Z,21.7
2017-08-22T11:06:58.874Z,21.7
2017-08-22T11:08:17.546Z,21.5
2017-08-22T11:09:36.211Z,21.6
2017-08-22T11:10:54.869Z,21.9
2017-08-22T11:12:13.536Z,22.1
2017-08-22T11:13:32.189Z,22.1
2017-08-22T11:14:50.848Z,22.2
2017-08-22T11:16:09.549Z,22.3
2017-08-22T11:17:28.242Z,22.5
2017-08-22T11:18:46.901Z,22.6
2017-08-22T11:20:05.554Z,22.8
2017-08-22T11:21:24.211Z,22.8
2017-08-22T11:22:42.914Z,23.1
2017-08-22T11:24:01.583Z,23.4
2017-08-22T11:25:20.241Z,23.7
2017-08-22T11:26:38.894Z,23.9
2017-08-22T11:27:57.610Z,24
2017-08-22T11:29:16.260Z,24
2017-08-22T11:30:34.909Z,23.9
2017-08-22T11:31:53.615Z,23.7
2017-08-22T11:33:12.284Z,23.8
2017-08-22T11:34:30.935Z,24
2017-08-22T11:35:49.641Z,23.7
2017-08-22T11:37:08.309Z,23.2
2017-08-22T11:38:27.005Z,23.1
2017-08-22T11:39:45.656Z,23.2
2017-08-22T11:41:04.339Z,23
2017-08-22T11:42:23.054Z,22.9
2017-08-22T11:43:41.779Z,22.9
2017-08-22T11:45:00.438Z,23
2017-08-22T11:46:19.136Z,23.2
2017-08-22T11:47:37.823Z,23.6
2017-08-22T11:48:56.494Z,24.4
2017-08-22T11:50:15.143Z,26.3
2017-08-22T11:51:33.796Z,29.4
2017-08-22T11:52:52.459Z,32
2017-08-22T11:54:11.124Z,34.3
2017-08-22T11:55:29.781Z,34
2017-08-22T11:56:48.488Z,31.3
2017-08-22T11:58:07.148Z,29.3
2017-08-22T11:59:25.822Z,27.7
2017-08-22T12:00:44.491Z,26.7
2017-08-22T12:02:03.140Z,27.4
2017-08-22T12:03:21.805Z,27.4
2017-08-22T12:04:40.511Z,29.3
2017-08-22T12:05:59.225Z,30.4
2017-08-22T12:07:17.878Z,31.8
2017-08-22T12:08:36.579Z,34.3
2017-08-22T12:09:55.236Z,34.6
2017-08-22T12:11:13.927Z,34.9
2017-08-22T12:12:32.635Z,34.6
2017-08-22T12:13:51.286Z,34.5
2017-08-22T12:15:09.957Z,34.7
2017-08-22T12:16:28.672Z,34.9
2017-08-22T12:17:47.327Z,35
2017-08-22T12:19:05.979Z,35.1
2017-08-22T12:20:24.643Z,35.2
2017-08-22T12:21:43.302Z,35.2
2017-08-22T12:23:01.954Z,35.3
2017-08-22T12:24:20.613Z,35.3
2017-08-22T12:25:39.307Z,35.3
2017-08-22T12:26:57.952Z,35.1
2017-08-22T12:28:16.616Z,35.2
2017-08-22T12:29:35.268Z,35.3
2017-08-22T12:30:53.935Z,35.2
2017-08-22T12:32:12.620Z,34.9
2017-08-22T12:33:31.280Z,35
2017-08-22T12:34:49.965Z,35
2017-08-22T12:36:08.627Z,35
2017-08-22T12:37:27.336Z,35
2017-08-22T12:38:46.020Z,34.6
2017-08-22T12:40:04.733Z,33.4
2017-08-22T12:41:23.406Z,34.4
2017-08-22T12:42:42.060Z,34.4
2017-08-22T12:44:00.722Z,34.5
2017-08-22T12:45:19.384Z,34.8
2017-08-22T12:46:38.066Z,35.1
2017-08-22T12:47:56.742Z,35.3
2017-08-22T12:49:15.404Z,35.4
2017-08-22T12:50:34.089Z,35.5
2017-08-22T12:51:52.769Z,35.5
2017-08-22T12:53:11.480Z,35.1
2017-08-22T12:54:30.167Z,34.5
2017-08-22T12:55:48.835Z,34.6
2017-08-22T12:57:07.538Z,34.8
2017-08-22T12:58:26.220Z,34.6
2017-08-22T12:59:44.894Z,33.6
2017-08-22T13:01:03.584Z,32.2
2017-08-22T13:02:22.300Z,34.3
2017-08-22T13:03:40.954Z,34.3
2017-08-22T13:04:59.606Z,34.6
2017-08-22T13:06:18.264Z,34.9
2017-08-22T13:07:36.937Z,35.1
2017-08-22T13:08:55.626Z,35.3
2017-08-22T13:10:14.299Z,35.6
2017-08-22T13:11:33.003Z,35.6
2017-08-22T13:12:51.670Z,35.5
2017-08-22T13:14:10.357Z,35.6
2017-08-22T13:15:29.096Z,35.6
2017-08-22T13:16:47.750Z,35.4
2017-08-22T13:18:06.468Z,35.4
2017-08-22T13:19:25.125Z,35.5
2017-08-22T13:20:43.786Z,35.6
2017-08-22T13:22:02.458Z,35.7
2017-08-22T13:23:21.177Z,35.7
2017-08-22T13:24:39.869Z,35.5
2017-08-22T13:25:58.543Z,35.6
2017-08-22T13:27:17.206Z,35.6
2017-08-22T13:28:35.888Z,35.6
2017-08-22T13:29:54.545Z,35.7
2017-08-22T13:31:13.200Z,35.7
2017-08-22T13:32:31.857Z,35.8
2017-08-22T13:33:50.539Z,35.6
2017-08-22T13:35:09.188Z,35.5
2017-08-22T13:36:27.864Z,35.4
2017-08-22T13:37:46.522Z,35.3
2017-08-22T13:39:05.245Z,35.3
2017-08-22T13:40:23.974Z,35.3
2017-08-22T13:41:42.628Z,35.2
2017-08-22T13:43:01.285Z,35.4
2017-08-22T13:44:19.951Z,35.5
2017-08-22T13:45:38.603Z,35.5
2017-08-22T13:46:57.297Z,35.6
2017-08-22T13:48:15.953Z,35.7
2017-08-22T13:49:34.654Z,35.7
2017-08-22T13:50:53.309Z,35.8
2017-08-22T13:52:11.996Z,35.7
2017-08-22T13:53:30.651Z,35.7
2017-08-22T13:54:49.322Z,35.6
2017-08-22T13:56:08.025Z,35.5
2017-08-22T13:57:26.693Z,35.6
2017-08-22T13:58:45.359Z,35.6
2017-08-22T14:00:04.048Z,35.7
2017-08-22T14:01:22.701Z,35.7
2017-08-22T14:02:41.357Z,35.7
2017-08-22T14:04:00.021Z,35.6
2017-08-22T14:05:18.724Z,35.7
2017-08-22T14:06:37.382Z,35.6
2017-08-22T14:07:56.043Z,35.6
2017-08-22T14:09:14.700Z,35.7
2017-08-22T14:10:33.360Z,35.7
2017-08-22T14:11:52.039Z,35.7
2017-08-22T14:13:10.688Z,35.8
2017-08-22T14:14:29.398Z,35.8
2017-08-22T14:15:48.061Z,35.8
2017-08-22T14:17:06.721Z,35.8
2017-08-22T14:18:25.386Z,35.8
2017-08-22T14:19:44.093Z,35.8
2017-08-22T14:21:02.758Z,35.6
2017-08-22T14:22:21.439Z,35.6
2017-08-22T14:23:40.097Z,35.7
2017-08-22T14:24:58.835Z,35.7
2017-08-22T14:26:17.507Z,35.6
2017-08-22T14:27:36.178Z,35.6
2017-08-22T14:28:54.838Z,35.6
2017-08-22T14:30:13.507Z,35.6
2017-08-22T14:31:32.232Z,35.5
2017-08-22T14:32:50.892Z,35.6
2017-08-22T14:34:09.550Z,35.6
2017-08-22T14:35:28.211Z,35.3
2017-08-22T14:36:46.876Z,35.2
2017-08-22T14:38:05.560Z,35.2
2017-08-22T14:39:24.236Z,35.3
2017-08-22T14:40:42.894Z,35.4
2017-08-22T14:42:01.563Z,35.5
2017-08-22T14:43:20.221Z,35.6
2017-08-22T14:44:38.881Z,35.5
2017-08-22T14:45:57.589Z,35.5
2017-08-22T14:47:16.281Z,35.5
2017-08-22T14:48:34.983Z,35.5
2017-08-22T14:49:53.665Z,35.5
2017-08-22T14:51:12.318Z,35.6
2017-08-22T14:52:30.988Z,35.6
2017-08-22T14:53:49.665Z,35.5
2017-08-22T14:55:08.340Z,35.4
2017-08-22T14:56:27.061Z,35.4
2017-08-22T14:57:45.722Z,35.4
2017-08-22T14:59:04.381Z,35.4
2017-08-22T15:00:23.044Z,35.4
2017-08-22T15:01:41.696Z,35.4
2017-08-22T15:03:00.404Z,35
2017-08-22T15:04:19.082Z,34.6
2017-08-22T15:05:37.742Z,33.6
2017-08-22T15:06:56.433Z,32
2017-08-22T15:08:15.101Z,30.4
2017-08-22T15:09:33.798Z,29.4
2017-08-22T15:10:52.479Z,28.6
2017-08-22T15:12:11.143Z,27.8
2017-08-22T15:13:29.861Z,27.9
2017-08-22T15:14:48.548Z,27.8
2017-08-22T15:16:07.224Z,27.5
2017-08-22T15:17:25.883Z,27.1
2017-08-22T15:18:44.573Z,26.9
2017-08-22T15:20:03.231Z,26.8
2017-08-22T15:21:21.916Z,26.7
2017-08-22T15:22:40.570Z,26.6
2017-08-22T15:23:59.249Z,26.4
2017-08-22T15:25:17.906Z,26
2017-08-22T15:26:36.565Z,25.6
2017-08-22T15:27:55.242Z,25.1
2017-08-22T15:29:13.911Z,24.8
2017-08-22T15:30:32.565Z,24.7
2017-08-22T15:31:51.265Z,24.7
2017-08-22T15:33:09.967Z,24.7
2017-08-22T15:34:28.652Z,24.6
2017-08-22T15:35:47.308Z,24.5
2017-08-22T15:37:06.016Z,24.3
2017-08-22T15:38:24.677Z,24.1
2017-08-22T15:39:43.374Z,23.9
2017-08-22T15:41:02.035Z,24
2017-08-22T15:42:20.765Z,24
2017-08-22T15:43:39.420Z,23.8
2017-08-22T15:44:58.104Z,23.7
2017-08-22T15:46:16.844Z,23.6
2017-08-22T15:47:35.508Z,23.6
2017-08-22T15:48:54.186Z,23.7
2017-08-22T15:50:12.869Z,23.8
2017-08-22T15:51:31.524Z,23.9
2017-08-22T15:52:50.180Z,24
2017-08-22T15:54:08.852Z,24
2017-08-22T15:55:27.563Z,23.8
2017-08-22T15:56:46.257Z,23.7
2017-08-22T15:58:04.953Z,23.7
2017-08-22T15:59:23.654Z,23.6
2017-08-22T16:00:42.327Z,23.6
2017-08-22T16:02:00.986Z,23.5
2017-08-22T16:03:19.639Z,23.1
2017-08-22T16:04:38.389Z,23
2017-08-22T16:05:57.061Z,22.8
2017-08-22T16:07:15.759Z,22.6
2017-08-22T16:08:34.414Z,22.5
2017-08-22T16:09:53.067Z,22.5
2017-08-22T16:11:11.782Z,22.4
2017-08-22T16:12:30.469Z,22.4
2017-08-22T16:13:49.134Z,22.3
2017-08-22T16:15:07.797Z,22.2
2017-08-22T16:16:26.469Z,22
2017-08-22T16:17:45.127Z,21.8
2017-08-22T16:19:03.843Z,21.8
2017-08-22T16:20:22.533Z,21.6
2017-08-22T16:21:41.198Z,21.7
2017-08-22T16:22:59.895Z,21.6
2017-08-22T16:24:18.555Z,21.6
2017-08-22T16:25:37.212Z,21.4
2017-08-22T16:26:55.896Z,21.4
2017-08-22T16:28:14.573Z,21.3
2017-08-22T16:29:33.272Z,21.3
2017-08-22T16:30:51.932Z,21.3
2017-08-22T16:32:10.611Z,21.3
2017-08-22T16:33:29.297Z,21.2
2017-08-22T16:34:47.976Z,21.2
2017-08-22T16:36:06.656Z,21.1
2017-08-22T16:37:25.331Z,21
2017-08-22T16:38:43.988Z,20.9
2017-08-22T16:40:02.643Z,20.8
2017-08-22T16:41:21.344Z,20.8
2017-08-22T16:42:40.018Z,20.7
2017-08-22T16:43:58.726Z,20.7
2017-08-22T16:45:17.413Z,20.7
2017-08-22T16:46:36.104Z,20.8
2017-08-22T16:47:54.780Z,20.7
2017-08-22T16:49:13.465Z,20.7
2017-08-22T16:50:32.119Z,20.7
2017-08-22T16:51:50.814Z,20.6
2017-08-22T16:53:09.489Z,20.4
2017-08-22T16:54:28.175Z,20.4
2017-08-22T16:55:46.831Z,20.4
2017-08-22T16:57:05.482Z,20.3
2017-08-22T16:58:24.152Z,20.2
2017-08-22T16:59:42.820Z,20.2
2017-08-22T17:01:01.569Z,20.1
2017-08-22T17:02:20.223Z,20.1
2017-08-22T17:03:38.893Z,20.1
2017-08-22T17:04:57.551Z,20
2017-08-22T17:06:16.207Z,19.9
2017-08-22T17:07:34.870Z,19.9
2017-08-22T17:08:53.537Z,19.8
2017-08-22T17:10:12.186Z,19.8
2017-08-22T17:11:30.834Z,19.7
2017-08-22T17:12:49.497Z,19.6
2017-08-22T17:14:08.201Z,19.6
2017-08-22T17:15:26.908Z,19.5
2017-08-22T17:16:45.622Z,19.3
2017-08-22T17:18:04.304Z,19.2
2017-08-22T17:19:23.007Z,19.1
2017-08-22T17:20:41.664Z,19
2017-08-22T17:22:00.360Z,18.9
2017-08-22T17:23:19.052Z,18.8
2017-08-22T17:24:37.719Z,18.7
2017-08-22T17:25:56.425Z,18.7
2017-08-22T17:27:15.078Z,18.5
2017-08-22T17:28:33.733Z,18.5
2017-08-22T17:29:52.417Z,18.5
2017-08-22T17:31:11.073Z,18.5
2017-08-22T17:32:29.760Z,18.5
2017-08-22T17:33:48.415Z,18.6
2017-08-22T17:35:07.081Z,18.7
2017-08-22T17:36:25.759Z,18.8
2017-08-22T17:37:44.417Z,18.8
2017-08-22T17:39:03.110Z,18.7
2017-08-22T17:40:21.769Z,18.7
2017-08-22T17:41:40.432Z,18.7
2017-08-22T17:42:59.098Z,18.6
2017-08-22T17:44:17.772Z,18.5
2017-08-22T17:45:36.500Z,18.3